createdAt,value
2023-04-16T00:01:41.812Z,62.41
2023-04-16T00:04:09.793Z,62.00
2023-04-16T00:06:37.641Z,62.24
2023-04-16T00:09:06.767Z,62.47
2023-04-16T00:11:34.487Z,62.84
2023-04-16T00:14:02.339Z,62.40
2023-04-16T00:16:30.332Z,62.60
2023-04-16T00:18:58.063Z,62.63
2023-04-16T00:21:26.424Z,62.46
2023-04-16T00:23:54.905Z,62.61
2023-04-16T00:26:23.962Z,62.96
2023-04-16T00:28:51.669Z,62.86
2023-04-16T00:31:19.469Z,63.09
2023-04-16T00:33:47.205Z,62.98
2023-04-16T00:36:14.964Z,63.13
2023-04-16T00:38:42.676Z,63.11
2023-04-16T00:41:10.474Z,63.04
2023-04-16T00:43:39.562Z,63.41
2023-04-16T00:46:07.977Z,63.56
2023-04-16T00:48:36.693Z,63.51
2023-04-16T00:51:06.237Z,63.34
2023-04-16T00:53:35.036Z,63.87
2023-04-16T00:56:04.138Z,63.80
2023-04-16T00:58:32.317Z,63.42
2023-04-16T01:01:01.458Z,63.81
2023-04-16T01:03:39.133Z,64.28
2023-04-16T01:06:07.298Z,63.84
2023-04-16T01:08:35.174Z,64.16
2023-04-16T01:11:03.425Z,64.06
2023-04-16T01:13:31.408Z,63.88
2023-04-16T01:15:59.137Z,64.21
2023-04-16T01:18:28.253Z,64.33
2023-04-16T01:20:57.315Z,64.48
2023-04-16T01:23:25.125Z,64.18
2023-04-16T01:25:52.812Z,64.74
2023-04-16T01:28:20.587Z,64.54
2023-04-16T01:30:48.366Z,64.88
2023-04-16T01:33:18.081Z,64.41
2023-04-16T01:35:45.975Z,64.72
2023-04-16T01:38:15.056Z,64.63
2023-04-16T01:40:42.746Z,64.97
2023-04-16T01:43:10.475Z,64.72
2023-04-16T01:45:38.152Z,64.97
2023-04-16T01:48:06.362Z,65.24
2023-04-16T01:50:34.687Z,65.12
2023-04-16T01:53:04.993Z,64.83
2023-04-16T01:55:35.172Z,65.39
2023-04-16T01:58:02.870Z,65.69
2023-04-16T02:00:30.689Z,65.18
2023-04-16T02:02:58.557Z,65.45
2023-04-16T02:05:26.336Z,65.91
2023-04-16T02:07:54.052Z,65.50
2023-04-16T02:10:22.174Z,65.79
2023-04-16T02:12:51.254Z,66.14
2023-04-16T02:15:19.109Z,65.93
2023-04-16T02:17:48.712Z,66.06
2023-04-16T02:20:17.711Z,65.75
2023-04-16T02:22:45.560Z,66.13
2023-04-16T02:25:14.240Z,66.14
2023-04-16T02:27:42.021Z,66.45
2023-04-16T02:30:12.424Z,66.47
2023-04-16T02:32:40.316Z,66.66
2023-04-16T02:35:08.772Z,66.37
2023-04-16T02:37:36.486Z,66.81
2023-04-16T02:40:04.213Z,66.80
2023-04-16T02:42:31.887Z,66.32
2023-04-16T02:44:59.583Z,66.97
2023-04-16T02:47:28.670Z,66.77
2023-04-16T02:49:56.369Z,66.77
2023-04-16T02:52:24.049Z,67.07
2023-04-16T02:54:51.707Z,67.27
2023-04-16T02:57:19.385Z,67.01
2023-04-16T02:59:47.083Z,67.00
2023-04-16T03:02:14.928Z,67.43
2023-04-16T03:04:44.128Z,67.16
2023-04-16T03:07:13.015Z,67.18
2023-04-16T03:09:40.917Z,67.37
2023-04-16T03:12:08.653Z,67.32
2023-04-16T03:14:36.339Z,67.40
2023-04-16T03:17:04.039Z,67.60
2023-04-16T03:19:31.733Z,67.59
2023-04-16T03:22:00.824Z,67.56
2023-04-16T03:24:29.471Z,67.65
2023-04-16T03:26:58.789Z,67.32
2023-04-16T03:29:26.813Z,67.89
2023-04-16T03:31:54.601Z,67.42
2023-04-16T03:34:22.261Z,67.76
2023-04-16T03:36:49.967Z,68.06
2023-04-16T03:39:19.054Z,68.04
2023-04-16T03:41:46.962Z,67.61
2023-04-16T03:44:14.657Z,67.26
2023-04-16T03:46:42.517Z,67.36
2023-04-16T03:49:10.444Z,67.58
2023-04-16T03:51:38.231Z,67.78
2023-04-16T03:54:05.955Z,67.88
2023-04-16T03:56:35.526Z,67.67
2023-04-16T03:59:03.310Z,67.76
2023-04-16T04:01:30.991Z,67.97
2023-04-16T04:03:58.955Z,68.16
2023-04-16T04:06:27.493Z,68.15
2023-04-16T04:08:55.398Z,68.36
2023-04-16T04:11:23.071Z,68.99
2023-04-16T04:13:52.128Z,68.85
2023-04-16T04:16:19.891Z,68.82
2023-04-16T04:18:47.643Z,68.78
2023-04-16T04:21:15.372Z,68.81
2023-04-16T04:23:43.704Z,68.69
2023-04-16T04:26:11.471Z,69.02
2023-04-16T04:28:39.223Z,69.11
2023-04-16T04:31:08.313Z,69.21
2023-04-16T04:33:36.066Z,68.69
2023-04-16T04:36:03.966Z,69.20
2023-04-16T04:38:31.723Z,68.80
2023-04-16T04:41:00.156Z,68.57
2023-04-16T04:43:27.902Z,68.71
2023-04-16T04:45:55.638Z,68.74
2023-04-16T04:48:26.785Z,68.90
2023-04-16T04:50:54.735Z,69.10
2023-04-16T04:53:22.432Z,68.74
2023-04-16T04:55:53.115Z,69.17
2023-04-16T04:58:21.886Z,69.32
2023-04-16T05:00:49.646Z,69.26
2023-04-16T05:03:21.550Z,68.99
2023-04-16T05:05:50.800Z,69.08
2023-04-16T05:08:18.564Z,68.82
2023-04-16T05:10:46.288Z,69.02
2023-04-16T05:13:14.012Z,68.77
2023-04-16T05:15:41.706Z,68.69
2023-04-16T05:18:09.476Z,68.68
2023-04-16T05:20:37.823Z,68.72
2023-04-16T05:23:06.897Z,68.87
2023-04-16T05:25:34.836Z,68.91
2023-04-16T05:28:02.586Z,68.81
2023-04-16T05:30:30.487Z,68.56
2023-04-16T05:32:58.234Z,68.94
2023-04-16T05:35:25.959Z,69.19
2023-04-16T05:37:53.671Z,69.23
2023-04-16T05:40:22.846Z,69.62
2023-04-16T05:42:50.532Z,69.42
2023-04-16T05:45:18.282Z,69.19
2023-04-16T05:47:46.254Z,69.26
2023-04-16T05:50:14.067Z,69.06
2023-04-16T05:52:41.809Z,69.19
2023-04-16T05:55:10.477Z,69.10
2023-04-16T05:57:39.566Z,69.07
2023-04-16T06:00:10.179Z,69.58
2023-04-16T06:02:37.999Z,69.16
2023-04-16T06:05:06.480Z,69.08
2023-04-16T06:07:34.197Z,69.62
2023-04-16T06:10:01.903Z,69.50
2023-04-16T06:12:29.725Z,69.37
2023-04-16T06:14:58.776Z,69.65
2023-04-16T06:17:27.147Z,69.87
2023-04-16T06:19:54.919Z,69.60
2023-04-16T06:22:22.722Z,69.87
2023-04-16T06:24:50.625Z,69.66
2023-04-16T06:27:18.317Z,69.51
2023-04-16T06:29:46.078Z,69.46
2023-04-16T06:32:17.154Z,69.85
2023-04-16T06:34:44.908Z,69.74
2023-04-16T06:37:12.636Z,70.31
2023-04-16T06:39:40.661Z,70.25
2023-04-16T06:42:08.493Z,69.98
2023-04-16T06:44:36.688Z,70.09
2023-04-16T06:47:04.527Z,70.08
2023-04-16T06:49:33.694Z,69.49
2023-04-16T06:52:03.326Z,69.39
2023-04-16T06:54:32.467Z,69.37
2023-04-16T06:57:00.227Z,69.16
2023-04-16T06:59:27.964Z,68.93
2023-04-16T07:01:55.832Z,68.75
2023-04-16T07:04:24.494Z,68.56
2023-04-16T07:06:53.601Z,68.21
2023-04-16T07:09:21.391Z,67.75
2023-04-16T07:11:49.345Z,67.47
2023-04-16T07:14:17.177Z,67.07
2023-04-16T07:16:44.914Z,67.23
2023-04-16T07:19:12.642Z,67.66
2023-04-16T07:21:42.008Z,68.29
2023-04-16T07:24:11.334Z,68.54
2023-04-16T07:26:39.148Z,69.04
2023-04-16T07:29:07.097Z,68.87
2023-04-16T07:31:34.962Z,69.29
2023-04-16T07:34:02.796Z,69.34
2023-04-16T07:36:31.882Z,69.21
2023-04-16T07:38:59.587Z,69.37
2023-04-16T07:41:29.502Z,69.60
2023-04-16T07:43:57.720Z,70.01
2023-04-16T07:46:30.362Z,70.05
2023-04-16T07:48:58.254Z,69.99
2023-04-16T07:51:26.101Z,69.76
2023-04-16T07:53:53.842Z,70.12
2023-04-16T07:56:21.641Z,70.05
2023-04-16T07:58:50.703Z,69.93
2023-04-16T08:01:18.459Z,70.00
2023-04-16T08:03:46.385Z,70.27
2023-04-16T08:06:14.294Z,70.86
2023-04-16T08:08:42.182Z,70.42
2023-04-16T08:11:09.913Z,70.42
2023-04-16T08:13:37.649Z,70.29
2023-04-16T08:16:07.556Z,70.16
2023-04-16T08:18:35.486Z,70.53
2023-04-16T08:21:03.234Z,70.63
2023-04-16T08:23:30.965Z,70.30
2023-04-16T08:25:58.728Z,70.66
2023-04-16T08:28:26.466Z,70.48
2023-04-16T08:30:54.292Z,70.30
2023-04-16T08:33:23.691Z,69.99
2023-04-16T08:35:51.465Z,69.98
2023-04-16T08:38:19.166Z,69.70
2023-04-16T08:40:48.553Z,70.12
2023-04-16T08:43:18.877Z,70.00
2023-04-16T08:45:48.640Z,70.44
2023-04-16T08:48:16.461Z,70.34
2023-04-16T08:50:47.671Z,70.98
2023-04-16T08:53:20.271Z,70.85
2023-04-16T08:55:49.371Z,70.40
2023-04-16T08:58:20.921Z,70.24
2023-04-16T09:00:49.629Z,70.21
2023-04-16T09:03:19.833Z,70.09
2023-04-16T09:05:50.624Z,69.76
2023-04-16T09:08:19.006Z,69.68
2023-04-16T09:10:47.415Z,69.71
2023-04-16T09:13:16.963Z,70.17
2023-04-16T09:15:45.265Z,70.13
2023-04-16T09:18:13.130Z,70.39
2023-04-16T09:20:40.930Z,70.20
2023-04-16T09:23:10.423Z,70.92
2023-04-16T09:25:38.560Z,71.06
2023-04-16T09:28:06.677Z,70.95
2023-04-16T09:30:34.843Z,71.11
2023-04-16T09:33:16.560Z,70.97
2023-04-16T09:35:48.561Z,71.34
2023-04-16T09:38:18.194Z,71.19
2023-04-16T09:40:47.622Z,70.93
2023-04-16T09:43:17.486Z,70.48
2023-04-16T09:45:52.682Z,70.86
2023-04-16T09:48:30.220Z,70.79
2023-04-16T09:50:58.316Z,71.19
2023-04-16T09:53:28.324Z,71.26
2023-04-16T09:55:58.453Z,71.49
2023-04-16T09:58:26.433Z,71.07
2023-04-16T10:00:57.047Z,71.43
2023-04-16T10:03:31.843Z,71.52
2023-04-16T10:06:02.079Z,71.47
2023-04-16T10:08:31.263Z,70.76
2023-04-16T10:10:59.084Z,70.47
2023-04-16T10:13:27.898Z,70.74
2023-04-16T10:15:57.877Z,71.18
2023-04-16T10:18:25.854Z,71.52
2023-04-16T10:20:54.131Z,71.44
2023-04-16T10:23:22.927Z,72.00
2023-04-16T10:25:57.526Z,71.62
2023-04-16T10:28:26.118Z,71.71
2023-04-16T10:30:55.820Z,71.89
2023-04-16T10:33:25.184Z,72.15
2023-04-16T10:36:08.199Z,71.79
2023-04-16T10:38:38.927Z,71.65
2023-04-16T10:41:08.963Z,71.43
2023-04-16T10:43:41.963Z,71.81
2023-04-16T10:46:20.693Z,71.74
2023-04-16T10:48:50.392Z,71.65
2023-04-16T10:51:28.969Z,71.67
2023-04-16T10:53:57.833Z,71.92
2023-04-16T10:56:28.415Z,72.02
2023-04-16T10:58:57.152Z,72.21
2023-04-16T11:01:32.484Z,72.17
2023-04-16T11:04:04.285Z,71.85
2023-04-16T11:06:32.868Z,72.04
2023-04-16T11:09:00.590Z,72.07
2023-04-16T11:11:39.371Z,72.54
2023-04-16T11:14:10.361Z,72.40
2023-04-16T11:16:41.813Z,72.53
2023-04-16T11:19:16.395Z,72.79
2023-04-16T11:21:46.253Z,72.75
2023-04-16T11:24:14.045Z,72.73
2023-04-16T11:26:43.155Z,72.62
2023-04-16T11:29:15.950Z,72.25
2023-04-16T11:31:43.791Z,72.21
2023-04-16T11:34:11.726Z,72.83
2023-04-16T11:36:44.890Z,72.49
2023-04-16T11:39:12.922Z,72.82
2023-04-16T11:41:45.911Z,72.50
2023-04-16T11:44:21.826Z,72.83
2023-04-16T11:46:50.044Z,72.98
2023-04-16T11:49:18.393Z,72.67
2023-04-16T11:51:47.862Z,72.65
2023-04-16T11:54:22.702Z,72.48
2023-04-16T11:56:53.653Z,72.02
2023-04-16T11:59:22.958Z,72.39
2023-04-16T12:01:51.916Z,72.29
2023-04-16T12:04:23.819Z,72.98
2023-04-16T12:07:08.112Z,72.68
2023-04-16T12:09:40.009Z,72.80
2023-04-16T12:12:26.438Z,72.80
2023-04-16T12:14:56.791Z,72.42
2023-04-16T12:17:24.901Z,72.64
2023-04-16T12:19:53.854Z,72.54
2023-04-16T12:22:28.871Z,71.89
2023-04-16T12:25:00.707Z,71.28
2023-04-16T12:27:42.509Z,70.79
2023-04-16T12:30:11.382Z,69.89
2023-04-16T12:32:39.255Z,69.57
2023-04-16T12:35:07.500Z,68.88
2023-04-16T12:37:35.364Z,68.48
2023-04-16T12:40:04.778Z,68.14
2023-04-16T12:42:36.600Z,67.82
2023-04-16T12:45:05.241Z,68.15
2023-04-16T12:47:33.239Z,68.52
2023-04-16T12:50:01.247Z,68.96
2023-04-16T12:52:29.058Z,69.38
2023-04-16T12:54:56.867Z,69.27
2023-04-16T12:57:28.613Z,69.38
2023-04-16T12:59:58.270Z,69.06
2023-04-16T13:02:27.014Z,68.31
2023-04-16T13:04:55.554Z,67.61
2023-04-16T13:07:24.239Z,67.78
2023-04-16T13:09:52.063Z,67.09
2023-04-16T13:12:19.804Z,65.68
2023-04-16T13:14:48.176Z,65.01
2023-04-16T13:17:17.323Z,64.59
2023-04-16T13:19:45.749Z,64.13
2023-04-16T13:22:13.975Z,64.18
2023-04-16T13:24:41.719Z,64.69
2023-04-16T13:27:09.682Z,64.91
2023-04-16T13:29:37.654Z,65.92
2023-04-16T13:32:05.910Z,66.35
2023-04-16T13:34:35.099Z,67.12
2023-04-16T13:37:02.821Z,67.57
2023-04-16T13:39:30.520Z,67.76
2023-04-16T13:41:58.268Z,68.30
2023-04-16T13:44:26.015Z,68.58
2023-04-16T13:46:54.081Z,68.80
2023-04-16T13:49:22.692Z,68.87
2023-04-16T13:51:51.761Z,69.05
2023-04-16T13:54:19.456Z,69.20
2023-04-16T13:56:47.298Z,69.34
2023-04-16T13:59:16.688Z,69.58
2023-04-16T14:01:44.444Z,70.10
2023-04-16T14:04:12.220Z,70.26
2023-04-16T14:06:39.990Z,70.65
2023-04-16T14:09:10.804Z,70.62
2023-04-16T14:11:38.733Z,70.50
2023-04-16T14:14:06.636Z,70.72
2023-04-16T14:16:34.569Z,70.83
2023-04-16T14:19:02.281Z,70.60
2023-04-16T14:21:30.047Z,70.62
2023-04-16T14:23:57.773Z,70.74
2023-04-16T14:26:27.023Z,70.72
2023-04-16T14:28:54.816Z,70.85
2023-04-16T14:31:22.639Z,71.23
2023-04-16T14:33:50.449Z,71.33
2023-04-16T14:36:18.179Z,71.11
2023-04-16T14:38:45.918Z,70.69
2023-04-16T14:41:14.105Z,69.85
2023-04-16T14:43:44.381Z,69.84
2023-04-16T14:46:12.436Z,69.80
2023-04-16T14:48:40.214Z,69.73
2023-04-16T14:51:08.022Z,69.79
2023-04-16T14:53:36.535Z,70.18
2023-04-16T14:56:04.419Z,70.17
2023-04-16T14:58:32.619Z,70.73
2023-04-16T15:01:01.786Z,71.04
2023-04-16T15:03:31.203Z,71.01
2023-04-16T15:05:59.326Z,70.97
2023-04-16T15:08:27.178Z,71.07
2023-04-16T15:10:54.896Z,71.07
2023-04-16T15:13:22.551Z,71.13
2023-04-16T15:15:50.484Z,71.07
2023-04-16T15:18:19.596Z,71.11
2023-04-16T15:20:47.330Z,70.84
2023-04-16T15:23:15.077Z,70.74
2023-04-16T15:25:42.807Z,70.69
2023-04-16T15:28:10.556Z,70.64
2023-04-16T15:30:39.700Z,70.60
2023-04-16T15:33:07.655Z,70.57
2023-04-16T15:35:38.881Z,70.42
2023-04-16T15:38:06.596Z,70.55
2023-04-16T15:40:34.434Z,70.46
2023-04-16T15:43:02.160Z,70.47
2023-04-16T15:45:29.855Z,70.35
2023-04-16T15:47:57.590Z,70.28
2023-04-16T15:50:26.775Z,70.00
2023-04-16T15:52:55.905Z,69.99
2023-04-16T15:55:23.712Z,69.87
2023-04-16T15:57:51.436Z,70.16
2023-04-16T16:00:20.671Z,69.96
2023-04-16T16:02:48.542Z,70.32
2023-04-16T16:05:17.016Z,69.95
2023-04-16T16:07:45.538Z,70.03
2023-04-16T16:10:14.605Z,69.96
2023-04-16T16:12:42.458Z,70.15
2023-04-16T16:15:11.271Z,70.02
2023-04-16T16:17:39.227Z,69.91
2023-04-16T16:20:10.298Z,69.87
2023-04-16T16:22:39.120Z,69.91
2023-04-16T16:25:08.002Z,69.88
2023-04-16T16:27:37.198Z,70.04
2023-04-16T16:30:07.332Z,70.05
2023-04-16T16:32:35.147Z,69.99
2023-04-16T16:35:02.978Z,70.17
2023-04-16T16:37:30.761Z,70.01
2023-04-16T16:39:58.455Z,70.33
2023-04-16T16:42:26.579Z,69.97
2023-04-16T16:44:57.469Z,69.89
2023-04-16T16:47:25.447Z,70.04
2023-04-16T16:49:54.712Z,69.99
2023-04-16T16:52:23.969Z,69.57
2023-04-16T16:54:51.700Z,70.03
2023-04-16T16:57:20.123Z,70.11
2023-04-16T16:59:48.431Z,70.13
2023-04-16T17:02:17.547Z,70.26
2023-04-16T17:04:45.349Z,70.25
2023-04-16T17:07:13.036Z,70.09
2023-04-16T17:09:40.948Z,70.37
2023-04-16T17:12:08.723Z,70.42
2023-04-16T17:14:36.451Z,70.35
2023-04-16T17:17:04.179Z,70.48
2023-04-16T17:19:33.286Z,70.45
2023-04-16T17:22:00.997Z,70.27
2023-04-16T17:24:28.762Z,70.42
2023-04-16T17:26:56.976Z,70.28
2023-04-16T17:29:26.209Z,69.96
2023-04-16T17:31:54.213Z,69.36
2023-04-16T17:34:22.752Z,68.44
2023-04-16T17:36:51.824Z,67.99
2023-04-16T17:39:20.767Z,67.04
2023-04-16T17:41:54.059Z,66.85
2023-04-16T17:44:23.112Z,65.61
2023-04-16T17:46:50.890Z,65.73
2023-04-16T17:49:18.621Z,65.09
2023-04-16T17:51:46.379Z,64.16
2023-04-16T17:54:15.651Z,63.55
2023-04-16T17:56:43.394Z,63.02
2023-04-16T17:59:11.293Z,63.19
2023-04-16T18:01:39.080Z,62.33
2023-04-16T18:04:07.134Z,62.37
2023-04-16T18:06:35.024Z,62.68
2023-04-16T18:09:04.925Z,62.61
2023-04-16T18:11:34.140Z,62.70
2023-04-16T18:14:01.877Z,62.83
2023-04-16T18:16:29.554Z,62.90
2023-04-16T18:18:57.335Z,62.89
2023-04-16T18:21:25.004Z,62.55
2023-04-16T18:23:52.741Z,62.29
2023-04-16T18:26:22.513Z,62.37
2023-04-16T18:28:52.089Z,63.01
2023-04-16T18:31:21.336Z,63.37
2023-04-16T18:33:57.606Z,64.45
2023-04-16T18:36:26.512Z,64.68
2023-04-16T18:39:15.503Z,65.29
2023-04-16T18:41:43.607Z,65.52
2023-04-16T18:44:12.744Z,65.73
2023-04-16T18:46:40.482Z,65.89
2023-04-16T18:49:08.653Z,66.45
2023-04-16T18:51:36.600Z,66.65
2023-04-16T18:54:04.367Z,66.91
2023-04-16T18:56:32.087Z,66.78
2023-04-16T18:58:59.772Z,66.98
2023-04-16T19:01:28.940Z,66.92
2023-04-16T19:03:56.800Z,67.05
2023-04-16T19:06:24.610Z,67.39
2023-04-16T19:08:52.278Z,67.27
2023-04-16T19:11:20.032Z,67.31
2023-04-16T19:13:47.741Z,67.42
2023-04-16T19:16:15.834Z,67.44
2023-04-16T19:18:44.962Z,67.52
2023-04-16T19:21:12.631Z,67.38
2023-04-16T19:23:40.363Z,67.28
2023-04-16T19:26:08.116Z,67.58
2023-04-16T19:28:35.914Z,67.58
2023-04-16T19:31:03.627Z,67.87
2023-04-16T19:33:31.375Z,68.24
2023-04-16T19:36:01.731Z,68.15
2023-04-16T19:38:31.618Z,68.23
2023-04-16T19:40:59.358Z,68.59
2023-04-16T19:43:28.398Z,68.64
2023-04-16T19:45:57.807Z,68.67
2023-04-16T19:48:25.636Z,68.44
2023-04-16T19:50:53.473Z,68.41
2023-04-16T19:53:22.577Z,68.38
2023-04-16T19:55:50.512Z,68.22
2023-04-16T19:58:18.225Z,67.95
2023-04-16T20:00:47.243Z,67.78
2023-04-16T20:03:15.032Z,67.87
2023-04-16T20:05:42.780Z,67.64
2023-04-16T20:08:10.504Z,67.79
2023-04-16T20:10:39.598Z,67.84
2023-04-16T20:13:11.825Z,67.78
2023-04-16T20:15:39.587Z,68.10
2023-04-16T20:18:08.519Z,68.15
2023-04-16T20:20:37.835Z,68.17
2023-04-16T20:23:05.753Z,68.29
2023-04-16T20:25:33.504Z,67.97
2023-04-16T20:28:02.601Z,68.28
2023-04-16T20:30:30.993Z,68.40
2023-04-16T20:32:58.792Z,68.36
2023-04-16T20:35:27.076Z,68.41
2023-04-16T20:37:54.797Z,68.14
2023-04-16T20:40:24.022Z,68.22
2023-04-16T20:42:52.194Z,68.27
2023-04-16T20:45:21.833Z,68.20
2023-04-16T20:47:49.518Z,68.24
2023-04-16T20:50:17.282Z,68.08
2023-04-16T20:52:44.951Z,68.03
2023-04-16T20:55:12.683Z,68.21
2023-04-16T20:57:40.593Z,68.35
2023-04-16T21:00:11.999Z,68.53
2023-04-16T21:02:41.269Z,68.44
2023-04-16T21:05:13.732Z,68.39
2023-04-16T21:07:42.295Z,68.25
2023-04-16T21:10:11.204Z,67.94
2023-04-16T21:12:39.000Z,68.30
2023-04-16T21:15:07.468Z,67.77
2023-04-16T21:17:35.172Z,67.59
2023-04-16T21:20:06.959Z,67.80
2023-04-16T21:22:34.733Z,67.53
2023-04-16T21:25:02.869Z,67.42
2023-04-16T21:27:30.591Z,67.57
2023-04-16T21:29:58.312Z,67.37
2023-04-16T21:32:26.069Z,67.20
2023-04-16T21:34:53.827Z,67.20
2023-04-16T21:37:22.906Z,67.16
2023-04-16T21:39:50.609Z,67.35
2023-04-16T21:42:18.285Z,67.21
2023-04-16T21:44:46.474Z,67.30
2023-04-16T21:47:14.362Z,67.43
2023-04-16T21:49:42.756Z,67.13
2023-04-16T21:52:14.224Z,67.34
2023-04-16T21:54:43.363Z,67.44
2023-04-16T21:57:11.554Z,67.31
2023-04-16T21:59:40.016Z,67.08
2023-04-16T22:02:07.899Z,67.51
2023-04-16T22:04:38.911Z,67.33
2023-04-16T22:07:08.750Z,67.33
2023-04-16T22:09:36.548Z,67.24
2023-04-16T22:12:10.097Z,67.01
2023-04-16T22:14:42.072Z,66.95
2023-04-16T22:17:17.080Z,67.11
2023-04-16T22:19:45.555Z,66.97
2023-04-16T22:22:13.356Z,67.10
2023-04-16T22:24:41.133Z,67.05
2023-04-16T22:27:10.250Z,66.91
2023-04-16T22:29:39.139Z,67.21
2023-04-16T22:32:07.028Z,67.05
2023-04-16T22:34:34.772Z,67.09
2023-04-16T22:37:03.064Z,67.15
2023-04-16T22:39:31.561Z,67.24
2023-04-16T22:41:59.248Z,67.18
2023-04-16T22:44:28.359Z,67.29
2023-04-16T22:46:56.139Z,67.13
2023-04-16T22:49:23.932Z,67.24
2023-04-16T22:51:51.648Z,67.32
2023-04-16T22:54:19.370Z,67.33
2023-04-16T22:56:48.603Z,67.50
2023-04-16T22:59:16.341Z,67.49
2023-04-16T23:01:45.481Z,67.43
2023-04-16T23:04:13.250Z,67.51
2023-04-16T23:06:42.094Z,67.64
2023-04-16T23:09:10.068Z,67.46
2023-04-16T23:11:38.066Z,67.49
2023-04-16T23:14:06.018Z,67.26
2023-04-16T23:16:33.743Z,67.27
2023-04-16T23:19:02.820Z,67.37
2023-04-16T23:21:30.959Z,67.12
2023-04-16T23:23:59.091Z,67.15
2023-04-16T23:26:26.775Z,67.05
2023-04-16T23:28:54.497Z,66.95
2023-04-16T23:31:22.222Z,67.14
2023-04-16T23:33:49.925Z,67.12
2023-04-16T23:36:19.013Z,67.08
2023-04-16T23:38:46.749Z,67.03
2023-04-16T23:41:14.416Z,66.87
2023-04-16T23:43:42.195Z,66.80
2023-04-16T23:46:10.176Z,66.94
2023-04-16T23:48:37.969Z,66.95
2023-04-16T23:51:05.952Z,66.70
2023-04-16T23:53:36.377Z,66.91
2023-04-16T23:56:04.108Z,66.86
2023-04-16T23:58:31.925Z,66.76
